Time;durP1;ratioP1;P1;durP2;ratioP2;P2;SDS_P1;SDS_P2;PMS_P1;PMS_P2;Temp;Humidity;BMP_temperature;BMP_pressure;BME280_temperature;BME280_humidity;BME280_pressure;Samples;Min_cycle;Max_cycle;Signal;HPM_P1;HPM_P2
2022/02/17 00:00:26;;;;;;;;;;;;;;;;;;1000202;29;844;-47
2022/02/17 00:00:58;;;;;;;;;;;;;;;;;;1000059;29;1017;-45
2022/02/17 00:01:28;;;;;;;;;;;;;;;;;;1000059;29;1066;-47
2022/02/17 00:01:59;;;;;;;;;;;;;;;;;;999859;29;848;-47
2022/02/17 00:02:29;;;;;;;;;;;;;;;;;;1000154;29;1271;-45
2022/02/17 00:02:59;;;;;;;;;;;;;;;;;;1000046;29;809;-47
2022/02/17 00:03:30;;;;;;;;;;;;;;;;;;1000009;29;923;-50
2022/02/17 00:04:00;;;;;;;;;;;;;;;;;;995861;29;1468;-45
2022/02/17 00:04:31;;;;;;;;;;;;;;;;;;995825;29;905;-48
2022/02/17 00:05:02;;;;;;;;;;;;;;;;;;995981;29;1103;-46
2022/02/17 00:05:32;;;;;;;;;;;;;;;;;;995975;29;916;-48
2022/02/17 00:06:03;;;;;;;;;;;;;;;;;;1000066;29;888;-45
2022/02/17 00:06:33;;;;;;;;;;;;;;;;;;1000074;29;855;-48
2022/02/17 00:07:04;;;;;;;;;;;;;;;;;;1000102;29;975;-49
2022/02/17 00:07:34;;;;;;;;;;;;;;;;;;1000071;29;884;-46
2022/02/17 00:08:05;;;;;;;;;;;;;;;;;;999995;29;987;-45
2022/02/17 00:08:35;;;;;;;;;;;;;;;;;;1000091;29;1109;-47
2022/02/17 00:09:05;;;;;;;;;;;;;;;;;;999763;29;863;-49
2022/02/17 00:09:36;;;;;;;;;;;;;;;;;;999488;29;916;-45
2022/02/17 00:10:07;;;;;;;;;;;;;;;;;;999742;29;1032;-48
2022/02/17 00:10:38;;;;;;;;;;;;;;;;;;1000101;29;893;-46
2022/02/17 00:11:08;;;;;;;;;;;;;;;;;;999989;29;981;-45
2022/02/17 00:11:41;;;;;;;;;;;;;;;;;;1000009;29;1045;-47
2022/02/17 00:12:11;;;;;;;;;;;;;;;;;;999975;29;829;-45
2022/02/17 00:12:42;;;;;;;;;;;;;;;;;;1000149;29;1730;-46
2022/02/17 00:13:12;;;;;;;;;;;;;;;;;;999953;29;845;-47
2022/02/17 00:13:43;;;;;;;;;;;;;;;;;;1000075;29;950;-48
2022/02/17 00:14:13;;;;;;;;;;;;;;;;;;999878;29;886;-44
2022/02/17 00:14:43;;;;;;;;;;;;;;;;;;1000058;29;980;-46
2022/02/17 00:15:14;;;;;;;;;;;;;;;;;;999902;29;1014;-46
2022/02/17 00:15:44;;;;;;;;;;;;;;;;;;1000052;29;987;-45
2022/02/17 00:16:16;;;;;;;;;;;;;;;;;;1000049;29;1030;-45
2022/02/17 00:16:48;;;;;;;;;;;;;;;;;;999977;29;1966;-45
2022/02/17 00:17:18;;;;;;;;;;;;;;;;;;999987;29;901;-47
2022/02/17 00:17:49;;;;;;;;;;;;;;;;;;1000087;29;1080;-45
2022/02/17 00:18:22;;;;;;;;;;;;;;;;;;999923;29;976;-45
2022/02/17 00:18:52;;;;;;;;;;;;;;;;;;1000056;29;1064;-44
2022/02/17 00:19:23;;;;;;;;;;;;;;;;;;1000022;29;1084;-46
2022/02/17 00:19:54;;;;;;;;;;;;;;;;;;999979;29;880;-48
2022/02/17 00:20:25;;;;;;;;;;;;;;;;;;1000060;29;932;-44
2022/02/17 00:20:56;;;;;;;;;;;;;;;;;;999926;29;944;-44
2022/02/17 00:21:26;;;;;;;;;;;;;;;;;;1000183;29;1017;-46
2022/02/17 00:21:56;;;;;;;;;;;;;;;;;;999864;29;903;-45
2022/02/17 00:22:27;;;;;;;;;;;;;;;;;;999936;29;813;-47
2022/02/17 00:22:58;;;;;;;;;;;;;;;;;;1000096;29;929;-48
2022/02/17 00:23:28;;;;;;;;;;;;;;;;;;999747;29;1472;-45
2022/02/17 00:23:59;;;;;;;;;;;;;;;;;;1000102;29;1097;-46
2022/02/17 00:24:30;;;;;;;;;;;;;;;;;;999625;29;1279;-45
2022/02/17 00:25:00;;;;;;;;;;;;;;;;;;1000114;29;814;-47
2022/02/17 00:25:31;;;;;;;;;;;;;;;;;;999463;29;1077;-46
2022/02/17 00:26:01;;;;;;;;;;;;;;;;;;999883;29;959;-45
2022/02/17 00:26:32;;;;;;;;;;;;;;;;;;1000014;29;924;-46
2022/02/17 00:27:05;;;;;;;;;;;;;;;;;;999949;29;883;-45
2022/02/17 00:27:36;;;;;;;;;;;;;;;;;;999993;29;790;-48
2022/02/17 00:28:06;;;;;;;;;;;;;;;;;;995962;29;1407;-45
2022/02/17 00:28:37;;;;;;;;;;;;;;;;;;995779;29;959;-46
2022/02/17 00:29:10;;;;;;;;;;;;;;;;;;995993;29;830;-46
2022/02/17 00:29:41;;;;;;;;;;;;;;;;;;996467;29;1094;-45
2022/02/17 00:30:11;;;;;;;;;;;;;;;;;;999916;29;825;-47
2022/02/17 00:30:42;;;;;;;;;;;;;;;;;;1000173;29;944;-49
2022/02/17 00:31:12;;;;;;;;;;;;;;;;;;995520;29;1564;-45
2022/02/17 00:31:43;;;;;;;;;;;;;;;;;;996198;29;794;-46
2022/02/17 00:32:13;;;;;;;;;;;;;;;;;;995871;29;904;-47
2022/02/17 00:32:43;;;;;;;;;;;;;;;;;;995811;29;979;-45
2022/02/17 00:33:14;;;;;;;;;;;;;;;;;;1000029;29;980;-46
2022/02/17 00:33:44;;;;;;;;;;;;;;;;;;999875;29;860;-43
2022/02/17 00:34:14;;;;;;;;;;;;;;;;;;995885;29;994;-45
2022/02/17 00:34:45;;;;;;;;;;;;;;;;;;995905;29;875;-47
2022/02/17 00:35:15;;;;;;;;;;;;;;;;;;995763;29;738;-45
2022/02/17 00:35:45;;;;;;;;;;;;;;;;;;996115;29;1085;-45
2022/02/17 00:36:16;;;;;;;;;;;;;;;;;;999760;29;912;-48
2022/02/17 00:36:47;;;;;;;;;;;;;;;;;;999851;29;1972;-45
2022/02/17 00:37:18;;;;;;;;;;;;;;;;;;999975;29;996;-46
2022/02/17 00:37:49;;;;;;;;;;;;;;;;;;999819;29;801;-46
2022/02/17 00:38:20;;;;;;;;;;;;;;;;;;1000123;29;865;-45
2022/02/17 00:38:50;;;;;;;;;;;;;;;;;;999937;29;877;-45
2022/02/17 00:39:21;;;;;;;;;;;;;;;;;;999899;29;1019;-45
2022/02/17 00:39:52;;;;;;;;;;;;;;;;;;999920;29;935;-48
2022/02/17 00:40:22;;;;;;;;;;;;;;;;;;999921;29;793;-47
2022/02/17 00:40:53;;;;;;;;;;;;;;;;;;1000040;29;911;-44
2022/02/17 00:41:24;;;;;;;;;;;;;;;;;;999899;29;770;-45
2022/02/17 00:41:54;;;;;;;;;;;;;;;;;;999935;29;939;-45
2022/02/17 00:42:25;;;;;;;;;;;;;;;;;;1000015;29;951;-46
2022/02/17 00:42:55;;;;;;;;;;;;;;;;;;995685;29;683;-46
2022/02/17 00:43:25;;;;;;;;;;;;;;;;;;995856;29;922;-46
2022/02/17 00:43:56;;;;;;;;;;;;;;;;;;995853;29;864;-48
2022/02/17 00:44:26;;;;;;;;;;;;;;;;;;995897;29;951;-45
2022/02/17 00:44:57;;;;;;;;;;;;;;;;;;1000009;29;1001;-46
2022/02/17 00:45:27;;;;;;;;;;;;;;;;;;999798;29;809;-46
2022/02/17 00:45:58;;;;;;;;;;;;;;;;;;999979;29;892;-47
2022/02/17 00:46:29;;;;;;;;;;;;;;;;;;999870;29;841;-45
2022/02/17 00:46:59;;;;;;;;;;;;;;;;;;999954;29;1405;-45
2022/02/17 00:47:30;;;;;;;;;;;;;;;;;;999805;29;928;-45
2022/02/17 00:48:00;;;;;;;;;;;;;;;;;;995892;29;2011;-47
2022/02/17 00:48:32;;;;;;;;;;;;;;;;;;991944;29;1213;-46
2022/02/17 00:49:02;;;;;;;;;;;;;;;;;;992132;29;888;-45
2022/02/17 00:49:33;;;;;;;;;;;;;;;;;;992285;29;1095;-45
2022/02/17 00:50:03;;;;;;;;;;;;;;;;;;995785;29;1015;-45
2022/02/17 00:50:37;;;;;;;;;;;;;;;;;;995824;29;1284;-44
2022/02/17 00:51:07;;;;;;;;;;;;;;;;;;995647;29;1323;-45
2022/02/17 00:51:38;;;;;;;;;;;;;;;;;;995887;29;917;-46
2022/02/17 00:52:08;;;;;;;;;;;;;;;;;;995802;29;1037;-45
2022/02/17 00:52:38;;;;;;;;;;;;;;;;;;995982;29;932;-48
2022/02/17 00:53:09;;;;;;;;;;;;;;;;;;999851;29;813;-48
2022/02/17 00:53:40;;;;;;;;;;;;;;;;;;995811;29;1275;-46
2022/02/17 00:54:10;;;;;;;;;;;;;;;;;;991902;29;1165;-49
2022/02/17 00:54:48;;;;;;;;;;;;;;;;;;991981;29;1316;-45
2022/02/17 00:55:18;;;;;;;;;;;;;;;;;;992891;29;1488;-48
2022/02/17 00:55:49;;;;;;;;;;;;;;;;;;995740;29;939;-45
2022/02/17 00:56:21;;;;;;;;;;;;;;;;;;992075;29;1341;-45
2022/02/17 00:56:56;;;;;;;;;;;;;;;;;;989014;29;1986;-49
2022/02/17 00:57:30;;;;;;;;;;;;;;;;;;988241;30;1162;-45
2022/02/17 00:58:00;;;;;;;;;;;;;;;;;;989312;29;1300;-46
2022/02/17 00:58:33;;;;;;;;;;;;;;;;;;989021;29;1116;-46
2022/02/17 00:59:04;;;;;;;;;;;;;;;;;;992398;29;1465;-44
2022/02/17 00:59:34;;;;;;;;;;;;;;;;;;991994;29;1208;-44
2022/02/17 01:00:06;;;;;;;;;;;;;;;;;;988237;30;1099;-47
2022/02/17 01:00:39;;;;;;;;;;;;;;;;;;988894;29;1362;-46
2022/02/17 01:01:12;;;;;;;;;;;;;;;;;;988220;30;1274;-48
2022/02/17 01:01:46;;;;;;;;;;;;;;;;;;985449;30;1311;-44
2022/02/17 01:02:17;;;;;;;;;;;;;;;;;;988971;29;1304;-44
2022/02/17 01:02:48;;;;;;;;;;;;;;;;;;988230;30;1190;-46
2022/02/17 01:03:18;;;;;;;;;;;;;;;;;;988166;30;858;-47
2022/02/17 01:03:48;;;;;;;;;;;;;;;;;;988440;29;943;-48
2022/02/17 01:04:18;;;;;;;;;;;;;;;;;;988271;29;822;-46
2022/02/17 01:04:49;;;;;;;;;;;;;;;;;;988262;29;1241;-45
2022/02/17 01:05:20;;;;;;;;;;;;;;;;;;991893;29;1205;-45
2022/02/17 01:05:51;;;;;;;;;;;;;;;;;;991996;29;856;-45
2022/02/17 01:06:21;;;;;;;;;;;;;;;;;;992065;29;999;-47
2022/02/17 01:06:51;;;;;;;;;;;;;;;;;;992044;29;842;-44
2022/02/17 01:07:24;;;;;;;;;;;;;;;;;;988271;30;1158;-48
2022/02/17 01:07:54;;;;;;;;;;;;;;;;;;988264;30;889;-45
2022/02/17 01:08:25;;;;;;;;;;;;;;;;;;988612;29;834;-46
2022/02/17 01:08:57;;;;;;;;;;;;;;;;;;988678;29;1369;-48
2022/02/17 01:09:29;;;;;;;;;;;;;;;;;;992014;29;774;-45
2022/02/17 01:10:00;;;;;;;;;;;;;;;;;;988311;30;1361;-46
2022/02/17 01:10:31;;;;;;;;;;;;;;;;;;988469;29;952;-45
2022/02/17 01:11:02;;;;;;;;;;;;;;;;;;992063;29;794;-45
2022/02/17 01:11:33;;;;;;;;;;;;;;;;;;992379;29;901;-46
2022/02/17 01:12:03;;;;;;;;;;;;;;;;;;995735;29;893;-48
2022/02/17 01:12:35;;;;;;;;;;;;;;;;;;991779;29;1257;-45
2022/02/17 01:13:06;;;;;;;;;;;;;;;;;;992165;29;869;-46
2022/02/17 01:13:36;;;;;;;;;;;;;;;;;;991900;29;782;-48
2022/02/17 01:14:07;;;;;;;;;;;;;;;;;;992141;29;991;-47
2022/02/17 01:14:37;;;;;;;;;;;;;;;;;;995899;29;924;-45
2022/02/17 01:15:08;;;;;;;;;;;;;;;;;;996079;29;868;-45
2022/02/17 01:15:38;;;;;;;;;;;;;;;;;;995741;29;990;-46
2022/02/17 01:16:09;;;;;;;;;;;;;;;;;;995777;29;821;-45
2022/02/17 01:16:39;;;;;;;;;;;;;;;;;;995685;29;1978;-45
2022/02/17 01:17:16;;;;;;;;;;;;;;;;;;994749;29;1153;-48
2022/02/17 01:17:47;;;;;;;;;;;;;;;;;;991873;29;1201;-45
2022/02/17 01:18:17;;;;;;;;;;;;;;;;;;992053;29;919;-48
2022/02/17 01:18:47;;;;;;;;;;;;;;;;;;988198;29;833;-46
2022/02/17 01:19:22;;;;;;;;;;;;;;;;;;991919;29;1007;-49
2022/02/17 01:19:54;;;;;;;;;;;;;;;;;;991992;29;1190;-46
2022/02/17 01:20:26;;;;;;;;;;;;;;;;;;988071;30;1352;-45
2022/02/17 01:20:58;;;;;;;;;;;;;;;;;;988041;30;991;-47
2022/02/17 01:21:28;;;;;;;;;;;;;;;;;;988434;29;1023;-46
2022/02/17 01:21:58;;;;;;;;;;;;;;;;;;992409;29;846;-47
2022/02/17 01:22:31;;;;;;;;;;;;;;;;;;995650;29;1216;-47
2022/02/17 01:23:03;;;;;;;;;;;;;;;;;;995556;29;1415;-48
2022/02/17 01:23:33;;;;;;;;;;;;;;;;;;991929;29;1241;-44
2022/02/17 01:24:04;;;;;;;;;;;;;;;;;;991877;29;1317;-44
2022/02/17 01:24:35;;;;;;;;;;;;;;;;;;991663;29;1305;-44
2022/02/17 01:25:09;;;;;;;;;;;;;;;;;;992022;29;1279;-46
2022/02/17 01:25:40;;;;;;;;;;;;;;;;;;988122;30;826;-44
2022/02/17 01:26:12;;;;;;;;;;;;;;;;;;988331;30;986;-45
2022/02/17 01:26:52;;;;;;;;;;;;;;;;;;986066;30;1065;-46
2022/02/17 01:27:23;;;;;;;;;;;;;;;;;;989468;29;1332;-45
2022/02/17 01:27:54;;;;;;;;;;;;;;;;;;988288;30;1022;-47
2022/02/17 01:28:24;;;;;;;;;;;;;;;;;;988412;29;960;-46
2022/02/17 01:28:57;;;;;;;;;;;;;;;;;;991923;29;1217;-44
2022/02/17 01:29:32;;;;;;;;;;;;;;;;;;988035;29;1333;-47
2022/02/17 01:30:03;;;;;;;;;;;;;;;;;;988121;30;1281;-44
2022/02/17 01:30:35;;;;;;;;;;;;;;;;;;988125;30;1158;-44
2022/02/17 01:31:05;;;;;;;;;;;;;;;;;;984915;30;1367;-46
2022/02/17 01:31:38;;;;;;;;;;;;;;;;;;984409;30;826;-47
2022/02/17 01:32:18;;;;;;;;;;;;;;;;;;986005;30;1401;-45
2022/02/17 01:32:49;;;;;;;;;;;;;;;;;;989613;29;1517;-45
2022/02/17 01:33:19;;;;;;;;;;;;;;;;;;991934;29;858;-46
2022/02/17 01:33:57;;;;;;;;;;;;;;;;;;991935;29;1293;-45
2022/02/17 01:34:28;;;;;;;;;;;;;;;;;;988018;30;1276;-44
2022/02/17 01:35:01;;;;;;;;;;;;;;;;;;984483;30;1360;-46
2022/02/17 01:35:32;;;;;;;;;;;;;;;;;;981158;30;1319;-45
2022/02/17 01:36:09;;;;;;;;;;;;;;;;;;982010;30;941;-45
2022/02/17 01:36:41;;;;;;;;;;;;;;;;;;985298;30;1927;-44
2022/02/17 01:37:11;;;;;;;;;;;;;;;;;;985624;30;1313;-46
2022/02/17 01:37:42;;;;;;;;;;;;;;;;;;988533;29;1338;-46
2022/02/17 01:38:13;;;;;;;;;;;;;;;;;;988195;30;1186;-45
2022/02/17 01:38:44;;;;;;;;;;;;;;;;;;988177;30;1258;-45
2022/02/17 01:39:15;;;;;;;;;;;;;;;;;;988545;29;1186;-44
2022/02/17 01:39:47;;;;;;;;;;;;;;;;;;988039;30;1248;-45
2022/02/17 01:40:19;;;;;;;;;;;;;;;;;;988208;30;1338;-45
2022/02/17 01:40:53;;;;;;;;;;;;;;;;;;984769;30;1181;-46
2022/02/17 01:41:24;;;;;;;;;;;;;;;;;;992105;29;1338;-45
2022/02/17 01:41:58;;;;;;;;;;;;;;;;;;992770;29;1001;-44
2022/02/17 01:42:32;;;;;;;;;;;;;;;;;;991795;29;1297;-44
2022/02/17 01:43:02;;;;;;;;;;;;;;;;;;992093;29;1225;-45
2022/02/17 01:43:34;;;;;;;;;;;;;;;;;;987903;30;1115;-44
2022/02/17 01:44:04;;;;;;;;;;;;;;;;;;991929;29;1255;-46
2022/02/17 01:44:35;;;;;;;;;;;;;;;;;;991846;29;1017;-45
2022/02/17 01:45:08;;;;;;;;;;;;;;;;;;995603;29;812;-44
2022/02/17 01:45:39;;;;;;;;;;;;;;;;;;995780;29;1362;-46
2022/02/17 01:46:12;;;;;;;;;;;;;;;;;;991612;29;1316;-44
2022/02/17 01:46:42;;;;;;;;;;;;;;;;;;991989;29;1213;-45
2022/02/17 01:47:14;;;;;;;;;;;;;;;;;;988632;29;1217;-44
2022/02/17 01:47:46;;;;;;;;;;;;;;;;;;987948;30;1438;-45
2022/02/17 01:48:16;;;;;;;;;;;;;;;;;;988804;29;939;-45
2022/02/17 01:48:51;;;;;;;;;;;;;;;;;;992517;29;1401;-45
2022/02/17 01:49:22;;;;;;;;;;;;;;;;;;995781;29;857;-46
2022/02/17 01:49:52;;;;;;;;;;;;;;;;;;995640;29;1751;-44
2022/02/17 01:50:23;;;;;;;;;;;;;;;;;;991759;29;1277;-44
2022/02/17 01:50:54;;;;;;;;;;;;;;;;;;988249;29;2250;-44
2022/02/17 01:51:24;;;;;;;;;;;;;;;;;;991917;29;983;-44
2022/02/17 01:51:57;;;;;;;;;;;;;;;;;;992288;29;801;-44
2022/02/17 01:52:28;;;;;;;;;;;;;;;;;;992292;29;1335;-44
2022/02/17 01:52:58;;;;;;;;;;;;;;;;;;991642;29;1144;-44
2022/02/17 01:53:32;;;;;;;;;;;;;;;;;;992021;29;838;-45
2022/02/17 01:54:04;;;;;;;;;;;;;;;;;;992550;29;1357;-43
2022/02/17 01:54:35;;;;;;;;;;;;;;;;;;995392;29;766;-44
2022/02/17 01:55:06;;;;;;;;;;;;;;;;;;995767;29;981;-44
2022/02/17 01:55:41;;;;;;;;;;;;;;;;;;991930;29;813;-44
2022/02/17 01:56:11;;;;;;;;;;;;;;;;;;991816;29;1236;-46
2022/02/17 01:56:42;;;;;;;;;;;;;;;;;;991820;29;1912;-45
2022/02/17 01:57:16;;;;;;;;;;;;;;;;;;992362;29;802;-47
2022/02/17 01:57:53;;;;;;;;;;;;;;;;;;991746;29;1699;-46
2022/02/17 01:58:31;;;;;;;;;;;;;;;;;;990342;29;1260;-46
2022/02/17 01:59:10;;;;;;;;;;;;;;;;;;988085;30;1492;-44
2022/02/17 01:59:48;;;;;;;;;;;;;;;;;;991652;29;1346;-45
2022/02/17 02:00:26;;;;;;;;;;;;;;;;;;991943;29;1510;-45
2022/02/17 02:00:57;;;;;;;;;;;;;;;;;;993866;29;902;-45
2022/02/17 02:01:32;;;;;;;;;;;;;;;;;;991874;29;1395;-42
2022/02/17 02:02:02;;;;;;;;;;;;;;;;;;992660;29;873;-45
2022/02/17 02:02:34;;;;;;;;;;;;;;;;;;991808;29;1204;-46
2022/02/17 02:03:06;;;;;;;;;;;;;;;;;;987843;30;1192;-44
2022/02/17 02:03:57;;;;;;;;;;;;;;;;;;987619;30;1067;-45
2022/02/17 02:04:28;;;;;;;;;;;;;;;;;;987232;29;1280;-46
2022/02/17 02:05:03;;;;;;;;;;;;;;;;;;991305;29;928;-44
2022/02/17 02:05:34;;;;;;;;;;;;;;;;;;992061;29;805;-45
2022/02/17 02:06:04;;;;;;;;;;;;;;;;;;992481;29;1233;-46
2022/02/17 02:06:59;;;;;;;;;;;;;;;;;;991681;29;1184;-45
2022/02/17 02:07:30;;;;;;;;;;;;;;;;;;991777;29;999;-45
2022/02/17 02:08:08;;;;;;;;;;;;;;;;;;987972;30;1348;-48
2022/02/17 02:08:38;;;;;;;;;;;;;;;;;;988262;30;947;-47
2022/02/17 02:09:11;;;;;;;;;;;;;;;;;;987889;30;1601;-44
2022/02/17 02:09:57;;;;;;;;;;;;;;;;;;987972;30;1366;-45
2022/02/17 02:10:34;;;;;;;;;;;;;;;;;;987615;30;1178;-44
2022/02/17 02:11:06;;;;;;;;;;;;;;;;;;990828;29;1157;-45
2022/02/17 02:11:42;;;;;;;;;;;;;;;;;;987937;30;1400;-46
2022/02/17 02:12:13;;;;;;;;;;;;;;;;;;988198;30;976;-47
2022/02/17 02:12:45;;;;;;;;;;;;;;;;;;987959;29;1340;-44
2022/02/17 02:13:29;;;;;;;;;;;;;;;;;;989959;29;1423;-45
2022/02/17 02:14:00;;;;;;;;;;;;;;;;;;988014;30;1306;-44
2022/02/17 02:14:36;;;;;;;;;;;;;;;;;;990448;29;1324;-44
2022/02/17 02:15:06;;;;;;;;;;;;;;;;;;991574;29;1316;-44
2022/02/17 02:15:48;;;;;;;;;;;;;;;;;;990756;29;933;-44
2022/02/17 02:16:19;;;;;;;;;;;;;;;;;;991701;29;1292;-43
2022/02/17 02:16:52;;;;;;;;;;;;;;;;;;991719;29;1908;-46
2022/02/17 02:17:26;;;;;;;;;;;;;;;;;;991945;29;789;-44
2022/02/17 02:17:56;;;;;;;;;;;;;;;;;;988671;29;1154;-44
2022/02/17 02:18:26;;;;;;;;;;;;;;;;;;991756;29;873;-45
2022/02/17 02:18:57;;;;;;;;;;;;;;;;;;991950;29;904;-44
2022/02/17 02:19:27;;;;;;;;;;;;;;;;;;991607;29;817;-44
2022/02/17 02:20:04;;;;;;;;;;;;;;;;;;991638;29;1300;-43
2022/02/17 02:20:40;;;;;;;;;;;;;;;;;;988230;30;948;-46
2022/02/17 02:21:10;;;;;;;;;;;;;;;;;;987871;30;1145;-43
2022/02/17 02:21:42;;;;;;;;;;;;;;;;;;989363;29;1350;-44
2022/02/17 02:22:14;;;;;;;;;;;;;;;;;;990710;29;1372;-46
2022/02/17 02:22:45;;;;;;;;;;;;;;;;;;988476;29;885;-45
2022/02/17 02:23:16;;;;;;;;;;;;;;;;;;988069;30;1440;-44
2022/02/17 02:23:47;;;;;;;;;;;;;;;;;;988210;29;972;-45
2022/02/17 02:24:17;;;;;;;;;;;;;;;;;;987991;29;1498;-44
2022/02/17 02:24:48;;;;;;;;;;;;;;;;;;984399;30;1281;-44
2022/02/17 02:25:23;;;;;;;;;;;;;;;;;;984286;30;1373;-43
2022/02/17 02:25:53;;;;;;;;;;;;;;;;;;985272;30;878;-45
2022/02/17 02:26:29;;;;;;;;;;;;;;;;;;988047;30;1327;-43
2022/02/17 02:26:59;;;;;;;;;;;;;;;;;;989106;29;1325;-44
2022/02/17 02:27:33;;;;;;;;;;;;;;;;;;991798;29;1232;-47
2022/02/17 02:28:04;;;;;;;;;;;;;;;;;;991109;29;904;-46
2022/02/17 02:28:34;;;;;;;;;;;;;;;;;;988102;30;1208;-45
2022/02/17 02:29:07;;;;;;;;;;;;;;;;;;991954;29;1308;-45
2022/02/17 02:29:37;;;;;;;;;;;;;;;;;;991778;29;1520;-44
2022/02/17 02:30:09;;;;;;;;;;;;;;;;;;991668;29;1342;-44
2022/02/17 02:30:39;;;;;;;;;;;;;;;;;;991630;29;1315;-44
2022/02/17 02:31:10;;;;;;;;;;;;;;;;;;991767;29;1184;-44
2022/02/17 02:31:42;;;;;;;;;;;;;;;;;;991731;29;1441;-44
2022/02/17 02:32:12;;;;;;;;;;;;;;;;;;991482;29;976;-41
2022/02/17 02:32:42;;;;;;;;;;;;;;;;;;991460;29;790;-44
2022/02/17 02:33:13;;;;;;;;;;;;;;;;;;991613;29;893;-43
2022/02/17 02:33:43;;;;;;;;;;;;;;;;;;991683;29;1475;-43
2022/02/17 02:34:14;;;;;;;;;;;;;;;;;;991772;29;1158;-46
2022/02/17 02:34:44;;;;;;;;;;;;;;;;;;991420;29;1296;-47
2022/02/17 02:35:20;;;;;;;;;;;;;;;;;;988036;30;1465;-44
2022/02/17 02:35:52;;;;;;;;;;;;;;;;;;988810;29;884;-45
2022/02/17 02:36:23;;;;;;;;;;;;;;;;;;987927;30;1296;-45
2022/02/17 02:36:53;;;;;;;;;;;;;;;;;;988399;29;1915;-44
2022/02/17 02:37:23;;;;;;;;;;;;;;;;;;987867;29;1150;-44
2022/02/17 02:37:54;;;;;;;;;;;;;;;;;;988119;29;1221;-46
2022/02/17 02:38:31;;;;;;;;;;;;;;;;;;988106;30;1241;-43
2022/02/17 02:39:01;;;;;;;;;;;;;;;;;;991497;29;881;-44
2022/02/17 02:39:51;;;;;;;;;;;;;;;;;;989072;29;1173;-45
2022/02/17 02:40:21;;;;;;;;;;;;;;;;;;991762;29;951;-43
2022/02/17 02:40:53;;;;;;;;;;;;;;;;;;990332;29;1256;-44
2022/02/17 02:41:40;;;;;;;;;;;;;;;;;;987786;29;1485;-44
2022/02/17 02:42:11;;;;;;;;;;;;;;;;;;984425;30;921;-43
2022/02/17 02:42:41;;;;;;;;;;;;;;;;;;986606;30;885;-43
2022/02/17 02:43:15;;;;;;;;;;;;;;;;;;984677;30;1307;-44
2022/02/17 02:43:46;;;;;;;;;;;;;;;;;;984815;30;1288;-44
2022/02/17 02:44:19;;;;;;;;;;;;;;;;;;987978;30;881;-41
2022/02/17 02:44:56;;;;;;;;;;;;;;;;;;988990;29;1330;-44
2022/02/17 02:45:26;;;;;;;;;;;;;;;;;;992859;29;947;-44
2022/02/17 02:45:57;;;;;;;;;;;;;;;;;;991663;29;1464;-45
2022/02/17 02:46:28;;;;;;;;;;;;;;;;;;991797;29;921;-43
2022/02/17 02:47:02;;;;;;;;;;;;;;;;;;991498;29;2415;-46
2022/02/17 02:47:35;;;;;;;;;;;;;;;;;;992503;29;986;-43
2022/02/17 02:48:06;;;;;;;;;;;;;;;;;;991556;29;1247;-44
2022/02/17 02:48:37;;;;;;;;;;;;;;;;;;991966;29;908;-44
2022/02/17 02:49:10;;;;;;;;;;;;;;;;;;991632;29;884;-43
2022/02/17 02:49:40;;;;;;;;;;;;;;;;;;992126;29;1169;-43
2022/02/17 02:50:11;;;;;;;;;;;;;;;;;;995490;29;873;-44
2022/02/17 02:50:42;;;;;;;;;;;;;;;;;;991659;29;1341;-44
2022/02/17 02:51:12;;;;;;;;;;;;;;;;;;988042;30;1248;-44
2022/02/17 02:51:43;;;;;;;;;;;;;;;;;;987948;30;885;-43
2022/02/17 02:52:13;;;;;;;;;;;;;;;;;;988130;29;948;-43
2022/02/17 02:52:46;;;;;;;;;;;;;;;;;;988231;29;1378;-43
2022/02/17 02:53:18;;;;;;;;;;;;;;;;;;987880;30;1034;-43
2022/02/17 02:53:49;;;;;;;;;;;;;;;;;;988054;30;985;-43
2022/02/17 02:54:20;;;;;;;;;;;;;;;;;;988145;29;1280;-43
2022/02/17 02:54:50;;;;;;;;;;;;;;;;;;991868;29;987;-43
2022/02/17 02:55:20;;;;;;;;;;;;;;;;;;995296;29;1195;-45
2022/02/17 02:55:51;;;;;;;;;;;;;;;;;;995435;29;1412;-43
2022/02/17 02:56:22;;;;;;;;;;;;;;;;;;991649;29;1280;-43
2022/02/17 02:56:53;;;;;;;;;;;;;;;;;;987910;30;1907;-43
2022/02/17 02:57:25;;;;;;;;;;;;;;;;;;991425;29;1180;-44
2022/02/17 02:57:56;;;;;;;;;;;;;;;;;;988431;29;936;-44
2022/02/17 02:58:27;;;;;;;;;;;;;;;;;;991708;29;837;-46
2022/02/17 02:58:57;;;;;;;;;;;;;;;;;;988378;29;1472;-44
2022/02/17 02:59:28;;;;;;;;;;;;;;;;;;991566;29;1287;-42
2022/02/17 03:00:02;;;;;;;;;;;;;;;;;;991587;29;1078;-43
2022/02/17 03:00:32;;;;;;;;;;;;;;;;;;988551;29;1463;-43
2022/02/17 03:01:03;;;;;;;;;;;;;;;;;;987372;30;1177;-45
2022/02/17 03:01:33;;;;;;;;;;;;;;;;;;984484;30;1082;-43
2022/02/17 03:02:04;;;;;;;;;;;;;;;;;;984026;30;1379;-44
2022/02/17 03:02:35;;;;;;;;;;;;;;;;;;991350;29;1159;-43
2022/02/17 03:03:05;;;;;;;;;;;;;;;;;;995317;29;1102;-44
2022/02/17 03:03:36;;;;;;;;;;;;;;;;;;991867;29;1158;-45
2022/02/17 03:04:06;;;;;;;;;;;;;;;;;;991580;29;1332;-43
2022/02/17 03:04:37;;;;;;;;;;;;;;;;;;991540;29;1006;-44
2022/02/17 03:05:17;;;;;;;;;;;;;;;;;;991589;29;1161;-44
2022/02/17 03:05:48;;;;;;;;;;;;;;;;;;989277;29;1111;-44
2022/02/17 03:06:20;;;;;;;;;;;;;;;;;;991452;29;1292;-46
2022/02/17 03:06:51;;;;;;;;;;;;;;;;;;988329;29;1606;-45
2022/02/17 03:07:25;;;;;;;;;;;;;;;;;;987878;30;1233;-46
2022/02/17 03:07:55;;;;;;;;;;;;;;;;;;988497;29;941;-44
2022/02/17 03:08:25;;;;;;;;;;;;;;;;;;988320;29;1239;-44
2022/02/17 03:08:56;;;;;;;;;;;;;;;;;;991745;29;1177;-45
2022/02/17 03:09:31;;;;;;;;;;;;;;;;;;991581;29;1197;-46
2022/02/17 03:10:02;;;;;;;;;;;;;;;;;;988652;29;1060;-45
2022/02/17 03:10:32;;;;;;;;;;;;;;;;;;987784;30;1295;-42
2022/02/17 03:11:03;;;;;;;;;;;;;;;;;;984187;30;1175;-44
2022/02/17 03:11:37;;;;;;;;;;;;;;;;;;988021;30;1296;-46
2022/02/17 03:12:08;;;;;;;;;;;;;;;;;;988349;29;893;-43
2022/02/17 03:12:39;;;;;;;;;;;;;;;;;;992204;29;1392;-43
2022/02/17 03:13:09;;;;;;;;;;;;;;;;;;995464;29;1062;-43
2022/02/17 03:13:39;;;;;;;;;;;;;;;;;;999149;29;860;-43
2022/02/17 03:14:10;;;;;;;;;;;;;;;;;;995493;29;1495;-44
2022/02/17 03:14:42;;;;;;;;;;;;;;;;;;995033;29;1359;-44
2022/02/17 03:15:16;;;;;;;;;;;;;;;;;;991689;29;1343;-44
2022/02/17 03:15:47;;;;;;;;;;;;;;;;;;991704;29;1293;-46
2022/02/17 03:16:17;;;;;;;;;;;;;;;;;;992083;29;928;-44
2022/02/17 03:16:49;;;;;;;;;;;;;;;;;;991755;29;1919;-43
2022/02/17 03:17:21;;;;;;;;;;;;;;;;;;988101;29;1335;-43
2022/02/17 03:17:52;;;;;;;;;;;;;;;;;;991822;29;978;-44
2022/02/17 03:18:22;;;;;;;;;;;;;;;;;;991871;29;1134;-43
2022/02/17 03:18:52;;;;;;;;;;;;;;;;;;991567;29;817;-43
2022/02/17 03:19:23;;;;;;;;;;;;;;;;;;995484;29;952;-43
2022/02/17 03:19:54;;;;;;;;;;;;;;;;;;991697;29;1280;-46
2022/02/17 03:20:25;;;;;;;;;;;;;;;;;;988108;29;1505;-43
2022/02/17 03:20:55;;;;;;;;;;;;;;;;;;991769;29;1014;-43
2022/02/17 03:21:26;;;;;;;;;;;;;;;;;;991458;29;1631;-43
2022/02/17 03:21:56;;;;;;;;;;;;;;;;;;991799;29;1417;-44
2022/02/17 03:22:28;;;;;;;;;;;;;;;;;;987797;30;1435;-42
2022/02/17 03:23:00;;;;;;;;;;;;;;;;;;984394;30;1206;-44
2022/02/17 03:23:32;;;;;;;;;;;;;;;;;;988072;30;856;-43
2022/02/17 03:24:09;;;;;;;;;;;;;;;;;;989014;29;1265;-44
2022/02/17 03:24:45;;;;;;;;;;;;;;;;;;989545;29;1285;-43
2022/02/17 03:25:17;;;;;;;;;;;;;;;;;;988048;30;1111;-43
2022/02/17 03:25:48;;;;;;;;;;;;;;;;;;984955;30;1574;-43
2022/02/17 03:26:24;;;;;;;;;;;;;;;;;;985083;30;1318;-43
2022/02/17 03:27:03;;;;;;;;;;;;;;;;;;989648;29;2411;-44
2022/02/17 03:27:34;;;;;;;;;;;;;;;;;;987913;30;1505;-44
2022/02/17 03:28:23;;;;;;;;;;;;;;;;;;991359;29;624;-43
2022/02/17 03:29:01;;;;;;;;;;;;;;;;;;991135;29;1420;-44
2022/02/17 03:29:31;;;;;;;;;;;;;;;;;;995071;29;1517;-44
2022/02/17 03:30:09;;;;;;;;;;;;;;;;;;991460;29;1221;-44
2022/02/17 03:30:39;;;;;;;;;;;;;;;;;;991729;29;861;-44
2022/02/17 03:31:19;;;;;;;;;;;;;;;;;;989997;29;1466;-44
2022/02/17 03:31:57;;;;;;;;;;;;;;;;;;991624;29;1389;-44
2022/02/17 03:32:29;;;;;;;;;;;;;;;;;;987872;29;1096;-44
2022/02/17 03:33:00;;;;;;;;;;;;;;;;;;989123;29;991;-46
2022/02/17 03:33:31;;;;;;;;;;;;;;;;;;991849;29;1182;-44
2022/02/17 03:34:05;;;;;;;;;;;;;;;;;;995580;29;1480;-44
2022/02/17 03:34:37;;;;;;;;;;;;;;;;;;991461;29;1205;-44
2022/02/17 03:35:08;;;;;;;;;;;;;;;;;;987803;30;1281;-44
2022/02/17 03:35:38;;;;;;;;;;;;;;;;;;988184;29;994;-44
2022/02/17 03:36:09;;;;;;;;;;;;;;;;;;991642;29;1397;-44
2022/02/17 03:36:40;;;;;;;;;;;;;;;;;;988028;29;1379;-44
2022/02/17 03:37:10;;;;;;;;;;;;;;;;;;991572;29;2002;-46
2022/02/17 03:37:43;;;;;;;;;;;;;;;;;;987989;29;1234;-45
2022/02/17 03:38:14;;;;;;;;;;;;;;;;;;991783;29;1421;-47
2022/02/17 03:38:45;;;;;;;;;;;;;;;;;;988069;29;1350;-44
2022/02/17 03:39:16;;;;;;;;;;;;;;;;;;991765;29;814;-45
2022/02/17 03:40:04;;;;;;;;;;;;;;;;;;993233;29;1526;-45
2022/02/17 03:40:41;;;;;;;;;;;;;;;;;;991682;29;1397;-44
2022/02/17 03:41:13;;;;;;;;;;;;;;;;;;987935;30;2024;-43
2022/02/17 03:41:46;;;;;;;;;;;;;;;;;;985220;30;1217;-44
2022/02/17 03:42:17;;;;;;;;;;;;;;;;;;985013;30;1397;-44
2022/02/17 03:42:47;;;;;;;;;;;;;;;;;;988155;29;798;-47
2022/02/17 03:43:18;;;;;;;;;;;;;;;;;;992104;29;1388;-46
2022/02/17 03:43:48;;;;;;;;;;;;;;;;;;995292;29;1075;-45
2022/02/17 03:44:29;;;;;;;;;;;;;;;;;;995792;29;1325;-46
2022/02/17 03:45:10;;;;;;;;;;;;;;;;;;996284;29;1403;-45
2022/02/17 03:45:40;;;;;;;;;;;;;;;;;;992179;29;1161;-46
2022/02/17 03:46:13;;;;;;;;;;;;;;;;;;993927;29;849;-44
2022/02/17 03:46:44;;;;;;;;;;;;;;;;;;996042;29;927;-46
2022/02/17 03:47:17;;;;;;;;;;;;;;;;;;992806;29;1229;-44
2022/02/17 03:47:55;;;;;;;;;;;;;;;;;;992171;29;1303;-44